sensor_id;sensor_type;location;lat;lon;timestamp;P1;durP1;ratioP1;P2;durP2;ratioP2
8419;SDS011;4247;48.550;8.822;2023-01-28T00:00:27;13.07;;;6.30;;
8419;SDS011;4247;48.550;8.822;2023-01-28T00:02:54;12.97;;;7.00;;
8419;SDS011;4247;48.550;8.822;2023-01-28T00:05:22;8.77;;;6.47;;
8419;SDS011;4247;48.550;8.822;2023-01-28T00:07:49;21.87;;;8.27;;
8419;SDS011;4247;48.550;8.822;2023-01-28T00:10:17;21.53;;;7.60;;
8419;SDS011;4247;48.550;8.822;2023-01-28T00:12:44;12.60;;;7.67;;
8419;SDS011;4247;48.550;8.822;2023-01-28T00:15:16;18.57;;;6.20;;
8419;SDS011;4247;48.550;8.822;2023-01-28T00:17:43;16.57;;;6.77;;
8419;SDS011;4247;48.550;8.822;2023-01-28T00:20:10;11.33;;;6.23;;
8419;SDS011;4247;48.550;8.822;2023-01-28T00:22:39;13.07;;;7.03;;
8419;SDS011;4247;48.550;8.822;2023-01-28T00:25:09;7.60;;;4.40;;
8419;SDS011;4247;48.550;8.822;2023-01-28T00:27:36;9.60;;;5.43;;
8419;SDS011;4247;48.550;8.822;2023-01-28T00:30:04;11.13;;;5.43;;
8419;SDS011;4247;48.550;8.822;2023-01-28T00:32:31;9.73;;;6.13;;
8419;SDS011;4247;48.550;8.822;2023-01-28T00:34:58;7.20;;;4.37;;
8419;SDS011;4247;48.550;8.822;2023-01-28T00:37:26;5.77;;;4.03;;
8419;SDS011;4247;48.550;8.822;2023-01-28T00:39:57;7.60;;;4.90;;
8419;SDS011;4247;48.550;8.822;2023-01-28T00:45:05;8.57;;;5.10;;
8419;SDS011;4247;48.550;8.822;2023-01-28T00:47:35;9.40;;;5.60;;
8419;SDS011;4247;48.550;8.822;2023-01-28T00:50:02;11.27;;;4.93;;
8419;SDS011;4247;48.550;8.822;2023-01-28T00:52:29;5.80;;;4.10;;
8419;SDS011;4247;48.550;8.822;2023-01-28T00:55:01;6.57;;;4.50;;
8419;SDS011;4247;48.550;8.822;2023-01-28T00:57:32;4.67;;;4.10;;
8419;SDS011;4247;48.550;8.822;2023-01-28T00:59:59;6.87;;;4.40;;
8419;SDS011;4247;48.550;8.822;2023-01-28T01:02:26;7.47;;;3.57;;
8419;SDS011;4247;48.550;8.822;2023-01-28T01:04:53;6.00;;;4.47;;
8419;SDS011;4247;48.550;8.822;2023-01-28T01:07:26;7.83;;;4.83;;
8419;SDS011;4247;48.550;8.822;2023-01-28T01:09:59;6.60;;;4.77;;
8419;SDS011;4247;48.550;8.822;2023-01-28T01:12:28;7.60;;;4.53;;
8419;SDS011;4247;48.550;8.822;2023-01-28T01:14:55;8.97;;;5.30;;
8419;SDS011;4247;48.550;8.822;2023-01-28T01:17:28;8.23;;;4.50;;
8419;SDS011;4247;48.550;8.822;2023-01-28T01:19:58;5.80;;;4.17;;
8419;SDS011;4247;48.550;8.822;2023-01-28T01:22:24;7.10;;;4.63;;
8419;SDS011;4247;48.550;8.822;2023-01-28T01:24:51;6.33;;;4.50;;
8419;SDS011;4247;48.550;8.822;2023-01-28T01:27:21;5.37;;;3.67;;
8419;SDS011;4247;48.550;8.822;2023-01-28T01:29:50;7.00;;;4.63;;
8419;SDS011;4247;48.550;8.822;2023-01-28T01:32:18;8.37;;;5.10;;
8419;SDS011;4247;48.550;8.822;2023-01-28T01:34:46;8.40;;;4.73;;
8419;SDS011;4247;48.550;8.822;2023-01-28T01:37:13;12.60;;;5.20;;
8419;SDS011;4247;48.550;8.822;2023-01-28T01:39:43;9.33;;;4.73;;
8419;SDS011;4247;48.550;8.822;2023-01-28T01:42:12;9.53;;;5.77;;
8419;SDS011;4247;48.550;8.822;2023-01-28T01:44:59;7.47;;;4.93;;
8419;SDS011;4247;48.550;8.822;2023-01-28T01:47:32;9.10;;;4.90;;
8419;SDS011;4247;48.550;8.822;2023-01-28T01:50:06;6.33;;;4.47;;
8419;SDS011;4247;48.550;8.822;2023-01-28T01:52:37;8.93;;;4.37;;
8419;SDS011;4247;48.550;8.822;2023-01-28T01:55:08;5.07;;;3.07;;
8419;SDS011;4247;48.550;8.822;2023-01-28T01:57:40;5.33;;;4.13;;
8419;SDS011;4247;48.550;8.822;2023-01-28T02:00:11;10.83;;;5.93;;
8419;SDS011;4247;48.550;8.822;2023-01-28T02:02:39;5.43;;;4.43;;
8419;SDS011;4247;48.550;8.822;2023-01-28T02:05:12;5.03;;;3.70;;
8419;SDS011;4247;48.550;8.822;2023-01-28T02:07:42;6.23;;;3.77;;
8419;SDS011;4247;48.550;8.822;2023-01-28T02:10:12;4.67;;;3.67;;
8419;SDS011;4247;48.550;8.822;2023-01-28T02:12:41;4.73;;;4.13;;
8419;SDS011;4247;48.550;8.822;2023-01-28T02:15:13;5.77;;;4.80;;
8419;SDS011;4247;48.550;8.822;2023-01-28T02:17:43;5.40;;;3.87;;
8419;SDS011;4247;48.550;8.822;2023-01-28T02:20:12;7.30;;;4.47;;
8419;SDS011;4247;48.550;8.822;2023-01-28T02:22:52;10.53;;;5.03;;
8419;SDS011;4247;48.550;8.822;2023-01-28T02:25:42;6.03;;;4.17;;
8419;SDS011;4247;48.550;8.822;2023-01-28T02:28:43;5.73;;;4.23;;
8419;SDS011;4247;48.550;8.822;2023-01-28T02:31:17;6.67;;;4.50;;
8419;SDS011;4247;48.550;8.822;2023-01-28T02:33:49;6.43;;;4.03;;
8419;SDS011;4247;48.550;8.822;2023-01-28T02:36:24;6.00;;;4.27;;
8419;SDS011;4247;48.550;8.822;2023-01-28T02:38:56;8.17;;;4.80;;
8419;SDS011;4247;48.550;8.822;2023-01-28T02:41:31;7.47;;;4.00;;
8419;SDS011;4247;48.550;8.822;2023-01-28T02:44:03;6.20;;;4.40;;
8419;SDS011;4247;48.550;8.822;2023-01-28T02:46:37;4.43;;;3.83;;
8419;SDS011;4247;48.550;8.822;2023-01-28T02:49:22;6.70;;;3.87;;
8419;SDS011;4247;48.550;8.822;2023-01-28T02:52:01;7.87;;;5.20;;
8419;SDS011;4247;48.550;8.822;2023-01-28T02:54:45;9.13;;;4.43;;
8419;SDS011;4247;48.550;8.822;2023-01-28T02:57:24;5.93;;;4.60;;
8419;SDS011;4247;48.550;8.822;2023-01-28T03:00:02;7.10;;;4.23;;
8419;SDS011;4247;48.550;8.822;2023-01-28T03:02:36;6.50;;;3.97;;
8419;SDS011;4247;48.550;8.822;2023-01-28T03:05:10;5.27;;;4.77;;
8419;SDS011;4247;48.550;8.822;2023-01-28T03:07:45;7.03;;;4.30;;
8419;SDS011;4247;48.550;8.822;2023-01-28T03:10:13;8.23;;;3.73;;
8419;SDS011;4247;48.550;8.822;2023-01-28T03:12:42;5.83;;;4.30;;
8419;SDS011;4247;48.550;8.822;2023-01-28T03:15:36;8.00;;;4.87;;
8419;SDS011;4247;48.550;8.822;2023-01-28T03:18:24;6.37;;;4.57;;
8419;SDS011;4247;48.550;8.822;2023-01-28T03:21:11;5.97;;;4.03;;
8419;SDS011;4247;48.550;8.822;2023-01-28T03:23:59;6.93;;;4.03;;
8419;SDS011;4247;48.550;8.822;2023-01-28T03:26:55;5.47;;;3.93;;
8419;SDS011;4247;48.550;8.822;2023-01-28T03:29:45;9.57;;;5.27;;
8419;SDS011;4247;48.550;8.822;2023-01-28T03:32:33;7.33;;;4.40;;
8419;SDS011;4247;48.550;8.822;2023-01-28T03:35:21;6.67;;;4.13;;
8419;SDS011;4247;48.550;8.822;2023-01-28T03:38:07;9.43;;;4.80;;
8419;SDS011;4247;48.550;8.822;2023-01-28T03:40:48;5.47;;;4.13;;
8419;SDS011;4247;48.550;8.822;2023-01-28T03:43:16;6.50;;;4.17;;
8419;SDS011;4247;48.550;8.822;2023-01-28T03:45:43;5.30;;;4.33;;
8419;SDS011;4247;48.550;8.822;2023-01-28T03:48:11;8.13;;;4.83;;
8419;SDS011;4247;48.550;8.822;2023-01-28T03:50:40;4.20;;;3.27;;
8419;SDS011;4247;48.550;8.822;2023-01-28T03:53:07;7.00;;;4.07;;
8419;SDS011;4247;48.550;8.822;2023-01-28T03:55:40;3.73;;;2.97;;
8419;SDS011;4247;48.550;8.822;2023-01-28T03:58:07;5.83;;;3.57;;
8419;SDS011;4247;48.550;8.822;2023-01-28T04:00:35;6.13;;;3.57;;
8419;SDS011;4247;48.550;8.822;2023-01-28T04:03:06;5.33;;;4.10;;
8419;SDS011;4247;48.550;8.822;2023-01-28T04:05:41;5.63;;;3.90;;
8419;SDS011;4247;48.550;8.822;2023-01-28T04:08:08;6.90;;;3.50;;
8419;SDS011;4247;48.550;8.822;2023-01-28T04:10:36;6.63;;;4.20;;
8419;SDS011;4247;48.550;8.822;2023-01-28T04:13:07;3.73;;;3.27;;
8419;SDS011;4247;48.550;8.822;2023-01-28T04:15:33;4.77;;;3.60;;
8419;SDS011;4247;48.550;8.822;2023-01-28T04:18:01;6.30;;;4.57;;
8419;SDS011;4247;48.550;8.822;2023-01-28T04:20:28;4.03;;;3.13;;
8419;SDS011;4247;48.550;8.822;2023-01-28T04:22:57;7.77;;;4.53;;
8419;SDS011;4247;48.550;8.822;2023-01-28T04:25:25;5.33;;;4.13;;
8419;SDS011;4247;48.550;8.822;2023-01-28T04:27:54;4.90;;;3.80;;
8419;SDS011;4247;48.550;8.822;2023-01-28T04:30:22;4.43;;;3.20;;
8419;SDS011;4247;48.550;8.822;2023-01-28T04:32:50;3.87;;;3.47;;
8419;SDS011;4247;48.550;8.822;2023-01-28T04:35:18;4.10;;;3.50;;
8419;SDS011;4247;48.550;8.822;2023-01-28T04:37:45;7.30;;;4.07;;
8419;SDS011;4247;48.550;8.822;2023-01-28T04:40:16;7.13;;;4.53;;
8419;SDS011;4247;48.550;8.822;2023-01-28T04:42:51;7.30;;;4.20;;
8419;SDS011;4247;48.550;8.822;2023-01-28T04:45:20;4.13;;;3.70;;
8419;SDS011;4247;48.550;8.822;2023-01-28T04:47:47;3.80;;;3.20;;
8419;SDS011;4247;48.550;8.822;2023-01-28T04:50:15;6.13;;;3.63;;
8419;SDS011;4247;48.550;8.822;2023-01-28T04:52:43;6.60;;;4.50;;
8419;SDS011;4247;48.550;8.822;2023-01-28T04:55:10;6.13;;;4.33;;
8419;SDS011;4247;48.550;8.822;2023-01-28T04:57:38;6.07;;;4.23;;
8419;SDS011;4247;48.550;8.822;2023-01-28T05:00:06;5.13;;;3.93;;
8419;SDS011;4247;48.550;8.822;2023-01-28T05:02:34;6.87;;;4.67;;
8419;SDS011;4247;48.550;8.822;2023-01-28T05:05:01;7.07;;;4.87;;
8419;SDS011;4247;48.550;8.822;2023-01-28T05:07:32;6.50;;;4.37;;
8419;SDS011;4247;48.550;8.822;2023-01-28T05:10:04;6.87;;;4.80;;
8419;SDS011;4247;48.550;8.822;2023-01-28T05:12:31;10.13;;;4.30;;
8419;SDS011;4247;48.550;8.822;2023-01-28T05:15:00;9.00;;;5.60;;
8419;SDS011;4247;48.550;8.822;2023-01-28T05:17:28;7.37;;;4.37;;
8419;SDS011;4247;48.550;8.822;2023-01-28T05:19:55;6.13;;;4.47;;
8419;SDS011;4247;48.550;8.822;2023-01-28T05:22:25;8.87;;;4.70;;
8419;SDS011;4247;48.550;8.822;2023-01-28T05:24:51;6.60;;;4.90;;
8419;SDS011;4247;48.550;8.822;2023-01-28T05:27:19;7.20;;;4.57;;
8419;SDS011;4247;48.550;8.822;2023-01-28T05:29:46;5.57;;;3.97;;
8419;SDS011;4247;48.550;8.822;2023-01-28T05:32:15;9.67;;;5.27;;
8419;SDS011;4247;48.550;8.822;2023-01-28T05:34:44;6.80;;;5.40;;
8419;SDS011;4247;48.550;8.822;2023-01-28T05:37:11;12.00;;;6.10;;
8419;SDS011;4247;48.550;8.822;2023-01-28T05:39:38;7.93;;;5.53;;
8419;SDS011;4247;48.550;8.822;2023-01-28T05:42:08;5.97;;;5.33;;
8419;SDS011;4247;48.550;8.822;2023-01-28T05:44:36;6.97;;;4.47;;
8419;SDS011;4247;48.550;8.822;2023-01-28T05:47:03;6.27;;;4.40;;
8419;SDS011;4247;48.550;8.822;2023-01-28T05:49:32;7.27;;;4.87;;
8419;SDS011;4247;48.550;8.822;2023-01-28T05:51:59;10.57;;;5.00;;
8419;SDS011;4247;48.550;8.822;2023-01-28T05:54:29;9.83;;;5.27;;
8419;SDS011;4247;48.550;8.822;2023-01-28T05:56:56;10.30;;;5.33;;
8419;SDS011;4247;48.550;8.822;2023-01-28T05:59:23;6.87;;;4.80;;
8419;SDS011;4247;48.550;8.822;2023-01-28T06:01:50;8.43;;;5.80;;
8419;SDS011;4247;48.550;8.822;2023-01-28T06:04:17;7.17;;;4.47;;
8419;SDS011;4247;48.550;8.822;2023-01-28T06:06:45;8.57;;;5.47;;
8419;SDS011;4247;48.550;8.822;2023-01-28T06:09:14;6.27;;;4.67;;
8419;SDS011;4247;48.550;8.822;2023-01-28T06:11:41;6.10;;;4.77;;
8419;SDS011;4247;48.550;8.822;2023-01-28T06:14:09;7.57;;;5.60;;
8419;SDS011;4247;48.550;8.822;2023-01-28T06:16:37;9.97;;;5.07;;
8419;SDS011;4247;48.550;8.822;2023-01-28T06:19:04;6.27;;;3.63;;
8419;SDS011;4247;48.550;8.822;2023-01-28T06:21:31;6.57;;;4.90;;
8419;SDS011;4247;48.550;8.822;2023-01-28T06:24:00;7.47;;;4.40;;
8419;SDS011;4247;48.550;8.822;2023-01-28T06:26:27;9.03;;;4.10;;
8419;SDS011;4247;48.550;8.822;2023-01-28T06:28:54;7.43;;;4.40;;
8419;SDS011;4247;48.550;8.822;2023-01-28T06:31:21;4.70;;;4.27;;
8419;SDS011;4247;48.550;8.822;2023-01-28T06:33:48;6.67;;;4.63;;
8419;SDS011;4247;48.550;8.822;2023-01-28T06:36:15;8.70;;;4.93;;
8419;SDS011;4247;48.550;8.822;2023-01-28T06:38:42;10.00;;;4.63;;
8419;SDS011;4247;48.550;8.822;2023-01-28T06:41:10;8.03;;;5.73;;
8419;SDS011;4247;48.550;8.822;2023-01-28T06:43:38;6.80;;;4.93;;
8419;SDS011;4247;48.550;8.822;2023-01-28T06:46:05;11.77;;;6.00;;
8419;SDS011;4247;48.550;8.822;2023-01-28T06:48:32;11.17;;;5.73;;
8419;SDS011;4247;48.550;8.822;2023-01-28T06:51:01;10.77;;;7.47;;
8419;SDS011;4247;48.550;8.822;2023-01-28T06:53:28;9.20;;;6.13;;
8419;SDS011;4247;48.550;8.822;2023-01-28T06:55:55;9.33;;;5.57;;
8419;SDS011;4247;48.550;8.822;2023-01-28T06:58:27;6.43;;;5.03;;
8419;SDS011;4247;48.550;8.822;2023-01-28T07:00:54;9.50;;;6.90;;
8419;SDS011;4247;48.550;8.822;2023-01-28T07:03:24;8.97;;;4.83;;
8419;SDS011;4247;48.550;8.822;2023-01-28T07:05:51;9.60;;;5.03;;
8419;SDS011;4247;48.550;8.822;2023-01-28T07:08:18;8.00;;;4.50;;
8419;SDS011;4247;48.550;8.822;2023-01-28T07:10:45;8.27;;;5.87;;
8419;SDS011;4247;48.550;8.822;2023-01-28T07:13:13;7.20;;;5.17;;
8419;SDS011;4247;48.550;8.822;2023-01-28T07:15:42;6.27;;;4.27;;
8419;SDS011;4247;48.550;8.822;2023-01-28T07:18:10;6.67;;;4.57;;
8419;SDS011;4247;48.550;8.822;2023-01-28T07:20:36;8.57;;;5.33;;
8419;SDS011;4247;48.550;8.822;2023-01-28T07:23:03;7.37;;;5.37;;
8419;SDS011;4247;48.550;8.822;2023-01-28T07:25:33;7.70;;;4.57;;
8419;SDS011;4247;48.550;8.822;2023-01-28T07:28:00;8.87;;;4.93;;
8419;SDS011;4247;48.550;8.822;2023-01-28T07:30:28;9.33;;;6.33;;
8419;SDS011;4247;48.550;8.822;2023-01-28T07:32:57;7.50;;;5.03;;
8419;SDS011;4247;48.550;8.822;2023-01-28T07:35:25;7.40;;;5.50;;
8419;SDS011;4247;48.550;8.822;2023-01-28T07:37:57;7.17;;;5.70;;
8419;SDS011;4247;48.550;8.822;2023-01-28T07:40:27;10.33;;;6.83;;
8419;SDS011;4247;48.550;8.822;2023-01-28T07:42:55;8.40;;;5.80;;
8419;SDS011;4247;48.550;8.822;2023-01-28T07:45:23;8.43;;;5.33;;
8419;SDS011;4247;48.550;8.822;2023-01-28T07:47:53;6.20;;;4.67;;
8419;SDS011;4247;48.550;8.822;2023-01-28T07:50:25;4.93;;;4.40;;
8419;SDS011;4247;48.550;8.822;2023-01-28T07:52:53;9.07;;;5.00;;
8419;SDS011;4247;48.550;8.822;2023-01-28T07:55:22;7.27;;;4.90;;
8419;SDS011;4247;48.550;8.822;2023-01-28T07:57:50;8.23;;;5.37;;
8419;SDS011;4247;48.550;8.822;2023-01-28T08:00:19;6.03;;;5.20;;
8419;SDS011;4247;48.550;8.822;2023-01-28T08:02:47;11.60;;;7.90;;
8419;SDS011;4247;48.550;8.822;2023-01-28T08:05:15;9.37;;;6.40;;
8419;SDS011;4247;48.550;8.822;2023-01-28T08:07:47;7.90;;;5.93;;
8419;SDS011;4247;48.550;8.822;2023-01-28T08:10:15;7.03;;;5.50;;
8419;SDS011;4247;48.550;8.822;2023-01-28T08:12:49;10.87;;;3.93;;
8419;SDS011;4247;48.550;8.822;2023-01-28T08:15:17;9.77;;;5.60;;
8419;SDS011;4247;48.550;8.822;2023-01-28T08:17:44;11.13;;;5.63;;
8419;SDS011;4247;48.550;8.822;2023-01-28T08:20:13;7.97;;;5.10;;
8419;SDS011;4247;48.550;8.822;2023-01-28T08:22:41;6.40;;;5.27;;
8419;SDS011;4247;48.550;8.822;2023-01-28T08:25:09;10.27;;;6.20;;
8419;SDS011;4247;48.550;8.822;2023-01-28T08:27:37;5.30;;;4.03;;
8419;SDS011;4247;48.550;8.822;2023-01-28T08:30:05;7.15;;;5.25;;
8419;SDS011;4247;48.550;8.822;2023-01-28T08:32:37;9.50;;;7.23;;
8419;SDS011;4247;48.550;8.822;2023-01-28T08:35:04;8.77;;;5.77;;
8419;SDS011;4247;48.550;8.822;2023-01-28T08:37:34;8.63;;;4.90;;
8419;SDS011;4247;48.550;8.822;2023-01-28T08:40:01;6.73;;;4.97;;
8419;SDS011;4247;48.550;8.822;2023-01-28T08:42:30;6.43;;;5.00;;
8419;SDS011;4247;48.550;8.822;2023-01-28T08:44:57;6.63;;;4.97;;
8419;SDS011;4247;48.550;8.822;2023-01-28T08:47:24;10.73;;;6.03;;
8419;SDS011;4247;48.550;8.822;2023-01-28T08:49:51;9.60;;;5.30;;
8419;SDS011;4247;48.550;8.822;2023-01-28T08:52:18;9.63;;;6.23;;
8419;SDS011;4247;48.550;8.822;2023-01-28T08:54:46;9.97;;;6.67;;
8419;SDS011;4247;48.550;8.822;2023-01-28T08:57:12;9.43;;;6.73;;
8419;SDS011;4247;48.550;8.822;2023-01-28T08:59:42;9.87;;;6.40;;
8419;SDS011;4247;48.550;8.822;2023-01-28T09:02:11;9.03;;;5.73;;
8419;SDS011;4247;48.550;8.822;2023-01-28T09:04:39;7.10;;;5.70;;
8419;SDS011;4247;48.550;8.822;2023-01-28T09:07:07;12.03;;;7.13;;
8419;SDS011;4247;48.550;8.822;2023-01-28T09:09:34;8.40;;;6.27;;
8419;SDS011;4247;48.550;8.822;2023-01-28T09:12:04;8.30;;;5.97;;
8419;SDS011;4247;48.550;8.822;2023-01-28T09:14:35;7.70;;;5.17;;
8419;SDS011;4247;48.550;8.822;2023-01-28T09:17:04;7.77;;;5.70;;
8419;SDS011;4247;48.550;8.822;2023-01-28T09:19:31;9.17;;;5.27;;
8419;SDS011;4247;48.550;8.822;2023-01-28T09:21:59;10.93;;;5.00;;
8419;SDS011;4247;48.550;8.822;2023-01-28T09:24:29;5.80;;;4.13;;
8419;SDS011;4247;48.550;8.822;2023-01-28T09:26:58;4.67;;;4.20;;
8419;SDS011;4247;48.550;8.822;2023-01-28T09:29:26;7.97;;;5.07;;
8419;SDS011;4247;48.550;8.822;2023-01-28T09:31:52;7.70;;;4.80;;
8419;SDS011;4247;48.550;8.822;2023-01-28T09:34:21;6.57;;;4.37;;
8419;SDS011;4247;48.550;8.822;2023-01-28T09:36:48;7.13;;;5.13;;
8419;SDS011;4247;48.550;8.822;2023-01-28T09:39:15;4.93;;;4.30;;
8419;SDS011;4247;48.550;8.822;2023-01-28T09:41:45;6.90;;;3.87;;
8419;SDS011;4247;48.550;8.822;2023-01-28T09:44:26;6.27;;;4.70;;
8419;SDS011;4247;48.550;8.822;2023-01-28T09:47:04;4.97;;;3.90;;
8419;SDS011;4247;48.550;8.822;2023-01-28T09:49:43;8.90;;;4.30;;
8419;SDS011;4247;48.550;8.822;2023-01-28T09:52:17;6.03;;;4.40;;
8419;SDS011;4247;48.550;8.822;2023-01-28T09:54:50;6.57;;;4.63;;
8419;SDS011;4247;48.550;8.822;2023-01-28T09:57:21;5.10;;;4.33;;
8419;SDS011;4247;48.550;8.822;2023-01-28T09:59:50;4.57;;;3.90;;
8419;SDS011;4247;48.550;8.822;2023-01-28T10:05:13;7.40;;;4.73;;
8419;SDS011;4247;48.550;8.822;2023-01-28T10:07:47;6.83;;;4.53;;
8419;SDS011;4247;48.550;8.822;2023-01-28T10:10:27;6.00;;;4.43;;
8419;SDS011;4247;48.550;8.822;2023-01-28T10:16:08;5.97;;;4.47;;
8419;SDS011;4247;48.550;8.822;2023-01-28T10:18:45;6.23;;;4.43;;
8419;SDS011;4247;48.550;8.822;2023-01-28T10:21:19;6.17;;;4.77;;
8419;SDS011;4247;48.550;8.822;2023-01-28T10:23:55;7.17;;;5.13;;
8419;SDS011;4247;48.550;8.822;2023-01-28T10:26:25;6.37;;;4.40;;
8419;SDS011;4247;48.550;8.822;2023-01-28T10:28:57;7.23;;;4.80;;
8419;SDS011;4247;48.550;8.822;2023-01-28T10:31:31;5.03;;;3.93;;
8419;SDS011;4247;48.550;8.822;2023-01-28T10:34:02;8.23;;;5.13;;
8419;SDS011;4247;48.550;8.822;2023-01-28T10:36:37;6.60;;;5.00;;
8419;SDS011;4247;48.550;8.822;2023-01-28T10:39:05;4.40;;;3.87;;
8419;SDS011;4247;48.550;8.822;2023-01-28T10:41:36;3.83;;;3.53;;
8419;SDS011;4247;48.550;8.822;2023-01-28T10:44:04;7.63;;;5.00;;
8419;SDS011;4247;48.550;8.822;2023-01-28T10:46:40;4.30;;;3.73;;
8419;SDS011;4247;48.550;8.822;2023-01-28T10:49:11;7.47;;;4.50;;
8419;SDS011;4247;48.550;8.822;2023-01-28T10:51:42;4.83;;;3.97;;
8419;SDS011;4247;48.550;8.822;2023-01-28T10:54:17;8.87;;;4.77;;
8419;SDS011;4247;48.550;8.822;2023-01-28T10:56:46;4.20;;;3.80;;
8419;SDS011;4247;48.550;8.822;2023-01-28T10:59:18;6.67;;;4.73;;
8419;SDS011;4247;48.550;8.822;2023-01-28T11:01:48;7.90;;;4.43;;
8419;SDS011;4247;48.550;8.822;2023-01-28T11:04:18;7.13;;;4.30;;
8419;SDS011;4247;48.550;8.822;2023-01-28T11:06:53;9.63;;;4.83;;
8419;SDS011;4247;48.550;8.822;2023-01-28T11:09:27;9.27;;;4.27;;
8419;SDS011;4247;48.550;8.822;2023-01-28T11:12:10;9.13;;;5.03;;
8419;SDS011;4247;48.550;8.822;2023-01-28T11:18:13;6.37;;;4.83;;
8419;SDS011;4247;48.550;8.822;2023-01-28T11:20:49;7.13;;;5.40;;
8419;SDS011;4247;48.550;8.822;2023-01-28T11:23:23;5.40;;;4.43;;
8419;SDS011;4247;48.550;8.822;2023-01-28T11:26:01;7.03;;;4.37;;
8419;SDS011;4247;48.550;8.822;2023-01-28T11:28:34;8.73;;;3.83;;
8419;SDS011;4247;48.550;8.822;2023-01-28T11:31:09;7.03;;;4.87;;
8419;SDS011;4247;48.550;8.822;2023-01-28T11:33:43;8.37;;;5.53;;
8419;SDS011;4247;48.550;8.822;2023-01-28T11:36:14;7.93;;;5.27;;
8419;SDS011;4247;48.550;8.822;2023-01-28T11:38:51;8.10;;;5.50;;
8419;SDS011;4247;48.550;8.822;2023-01-28T11:41:24;9.07;;;6.50;;
8419;SDS011;4247;48.550;8.822;2023-01-28T11:43:53;8.37;;;5.63;;
8419;SDS011;4247;48.550;8.822;2023-01-28T11:49:33;5.13;;;4.13;;
8419;SDS011;4247;48.550;8.822;2023-01-28T11:52:12;6.37;;;4.43;;
8419;SDS011;4247;48.550;8.822;2023-01-28T11:54:50;7.97;;;5.30;;
8419;SDS011;4247;48.550;8.822;2023-01-28T11:57:25;7.23;;;4.97;;
8419;SDS011;4247;48.550;8.822;2023-01-28T12:00:19;9.90;;;4.33;;
8419;SDS011;4247;48.550;8.822;2023-01-28T12:03:01;7.77;;;5.17;;
8419;SDS011;4247;48.550;8.822;2023-01-28T12:05:45;5.83;;;4.23;;
8419;SDS011;4247;48.550;8.822;2023-01-28T12:08:19;8.03;;;4.80;;
8419;SDS011;4247;48.550;8.822;2023-01-28T12:10:54;8.87;;;4.67;;
8419;SDS011;4247;48.550;8.822;2023-01-28T12:13:40;6.07;;;4.30;;
8419;SDS011;4247;48.550;8.822;2023-01-28T12:16:22;8.93;;;5.00;;
8419;SDS011;4247;48.550;8.822;2023-01-28T12:19:22;6.03;;;4.43;;
8419;SDS011;4247;48.550;8.822;2023-01-28T12:22:05;6.10;;;4.50;;
8419;SDS011;4247;48.550;8.822;2023-01-28T12:24:58;7.03;;;5.50;;
8419;SDS011;4247;48.550;8.822;2023-01-28T12:27:47;11.53;;;6.73;;
8419;SDS011;4247;48.550;8.822;2023-01-28T12:30:24;12.13;;;6.90;;
8419;SDS011;4247;48.550;8.822;2023-01-28T12:33:03;9.47;;;5.00;;
8419;SDS011;4247;48.550;8.822;2023-01-28T12:35:46;8.93;;;5.63;;
8419;SDS011;4247;48.550;8.822;2023-01-28T12:38:28;13.40;;;7.60;;
8419;SDS011;4247;48.550;8.822;2023-01-28T12:41:02;10.63;;;6.53;;
8419;SDS011;4247;48.550;8.822;2023-01-28T12:43:38;10.87;;;7.03;;
8419;SDS011;4247;48.550;8.822;2023-01-28T12:46:16;9.97;;;6.67;;
8419;SDS011;4247;48.550;8.822;2023-01-28T12:48:58;10.57;;;7.17;;
8419;SDS011;4247;48.550;8.822;2023-01-28T12:51:31;9.83;;;6.80;;
8419;SDS011;4247;48.550;8.822;2023-01-28T12:54:05;12.43;;;6.57;;
8419;SDS011;4247;48.550;8.822;2023-01-28T12:56:48;11.47;;;7.23;;
8419;SDS011;4247;48.550;8.822;2023-01-28T12:59:19;12.50;;;6.47;;
8419;SDS011;4247;48.550;8.822;2023-01-28T13:01:54;9.87;;;6.40;;
8419;SDS011;4247;48.550;8.822;2023-01-28T13:04:31;10.47;;;6.10;;
8419;SDS011;4247;48.550;8.822;2023-01-28T13:07:05;9.60;;;6.90;;
8419;SDS011;4247;48.550;8.822;2023-01-28T13:09:40;11.17;;;6.70;;
8419;SDS011;4247;48.550;8.822;2023-01-28T13:12:14;10.87;;;6.93;;
8419;SDS011;4247;48.550;8.822;2023-01-28T13:14:44;10.13;;;5.60;;
8419;SDS011;4247;48.550;8.822;2023-01-28T13:17:12;12.97;;;6.87;;
8419;SDS011;4247;48.550;8.822;2023-01-28T13:19:51;12.10;;;7.20;;
8419;SDS011;4247;48.550;8.822;2023-01-28T13:22:25;11.23;;;6.93;;
8419;SDS011;4247;48.550;8.822;2023-01-28T13:24:54;12.80;;;7.13;;
8419;SDS011;4247;48.550;8.822;2023-01-28T13:27:23;14.83;;;8.43;;
8419;SDS011;4247;48.550;8.822;2023-01-28T13:30:01;17.23;;;10.03;;
8419;SDS011;4247;48.550;8.822;2023-01-28T13:32:33;13.17;;;7.23;;
8419;SDS011;4247;48.550;8.822;2023-01-28T13:35:03;15.37;;;9.20;;
8419;SDS011;4247;48.550;8.822;2023-01-28T13:37:33;13.93;;;7.60;;
8419;SDS011;4247;48.550;8.822;2023-01-28T13:40:08;13.33;;;7.30;;
8419;SDS011;4247;48.550;8.822;2023-01-28T13:42:56;13.00;;;6.93;;
8419;SDS011;4247;48.550;8.822;2023-01-28T13:45:27;16.67;;;8.93;;
8419;SDS011;4247;48.550;8.822;2023-01-28T13:47:57;11.67;;;6.80;;
8419;SDS011;4247;48.550;8.822;2023-01-28T13:50:31;11.07;;;7.37;;
8419;SDS011;4247;48.550;8.822;2023-01-28T13:53:04;15.43;;;8.57;;
8419;SDS011;4247;48.550;8.822;2023-01-28T13:55:43;11.97;;;6.93;;
8419;SDS011;4247;48.550;8.822;2023-01-28T13:58:30;15.13;;;9.37;;
8419;SDS011;4247;48.550;8.822;2023-01-28T14:07:13;20.93;;;8.50;;
8419;SDS011;4247;48.550;8.822;2023-01-28T14:10:00;11.83;;;7.20;;
8419;SDS011;4247;48.550;8.822;2023-01-28T14:12:51;18.93;;;11.37;;
8419;SDS011;4247;48.550;8.822;2023-01-28T14:15:42;15.00;;;8.67;;
8419;SDS011;4247;48.550;8.822;2023-01-28T14:18:24;14.13;;;7.97;;
8419;SDS011;4247;48.550;8.822;2023-01-28T14:20:53;19.33;;;9.43;;
8419;SDS011;4247;48.550;8.822;2023-01-28T14:23:22;11.33;;;6.17;;
8419;SDS011;4247;48.550;8.822;2023-01-28T14:28:48;12.30;;;7.53;;
8419;SDS011;4247;48.550;8.822;2023-01-28T14:31:25;13.50;;;8.07;;
8419;SDS011;4247;48.550;8.822;2023-01-28T14:33:59;15.87;;;9.03;;
8419;SDS011;4247;48.550;8.822;2023-01-28T14:36:34;11.20;;;6.80;;
8419;SDS011;4247;48.550;8.822;2023-01-28T14:39:03;15.27;;;8.37;;
8419;SDS011;4247;48.550;8.822;2023-01-28T14:41:33;11.13;;;7.57;;
8419;SDS011;4247;48.550;8.822;2023-01-28T14:44:00;13.97;;;7.17;;
8419;SDS011;4247;48.550;8.822;2023-01-28T14:46:34;19.80;;;8.53;;
8419;SDS011;4247;48.550;8.822;2023-01-28T14:49:19;6.53;;;4.57;;
8419;SDS011;4247;48.550;8.822;2023-01-28T14:52:05;8.93;;;5.17;;
8419;SDS011;4247;48.550;8.822;2023-01-28T14:54:49;11.97;;;5.77;;
8419;SDS011;4247;48.550;8.822;2023-01-28T14:57:27;6.97;;;4.93;;
8419;SDS011;4247;48.550;8.822;2023-01-28T15:00:16;8.80;;;5.33;;
8419;SDS011;4247;48.550;8.822;2023-01-28T15:02:44;10.10;;;6.50;;
8419;SDS011;4247;48.550;8.822;2023-01-28T15:05:15;7.20;;;5.07;;
8419;SDS011;4247;48.550;8.822;2023-01-28T15:07:44;7.17;;;5.30;;
8419;SDS011;4247;48.550;8.822;2023-01-28T15:10:14;7.87;;;4.53;;
8419;SDS011;4247;48.550;8.822;2023-01-28T15:12:43;7.57;;;4.93;;
8419;SDS011;4247;48.550;8.822;2023-01-28T15:15:15;7.87;;;4.57;;
8419;SDS011;4247;48.550;8.822;2023-01-28T15:17:45;9.63;;;6.23;;
8419;SDS011;4247;48.550;8.822;2023-01-28T15:20:21;7.57;;;4.60;;
8419;SDS011;4247;48.550;8.822;2023-01-28T15:22:52;8.17;;;4.70;;
8419;SDS011;4247;48.550;8.822;2023-01-28T15:25:19;5.40;;;4.43;;
8419;SDS011;4247;48.550;8.822;2023-01-28T15:27:50;7.27;;;4.17;;
8419;SDS011;4247;48.550;8.822;2023-01-28T15:30:21;6.50;;;4.33;;
8419;SDS011;4247;48.550;8.822;2023-01-28T15:32:56;8.07;;;4.93;;
8419;SDS011;4247;48.550;8.822;2023-01-28T15:35:26;10.93;;;6.70;;
8419;SDS011;4247;48.550;8.822;2023-01-28T15:37:53;8.67;;;5.47;;
8419;SDS011;4247;48.550;8.822;2023-01-28T15:40:20;11.90;;;6.10;;
8419;SDS011;4247;48.550;8.822;2023-01-28T15:42:50;5.43;;;4.23;;
8419;SDS011;4247;48.550;8.822;2023-01-28T15:45:23;10.47;;;6.63;;
8419;SDS011;4247;48.550;8.822;2023-01-28T15:48:07;5.87;;;4.50;;
8419;SDS011;4247;48.550;8.822;2023-01-28T15:50:39;9.27;;;5.27;;
8419;SDS011;4247;48.550;8.822;2023-01-28T15:53:09;8.20;;;5.17;;
8419;SDS011;4247;48.550;8.822;2023-01-28T15:55:40;8.97;;;6.30;;
8419;SDS011;4247;48.550;8.822;2023-01-28T15:58:16;10.00;;;5.57;;
8419;SDS011;4247;48.550;8.822;2023-01-28T16:00:44;11.80;;;5.83;;
8419;SDS011;4247;48.550;8.822;2023-01-28T16:03:20;11.47;;;6.77;;
8419;SDS011;4247;48.550;8.822;2023-01-28T16:06:08;10.13;;;6.80;;